createdAt,value
2023-03-30T00:02:22.086Z,82.02
2023-03-30T00:05:02.145Z,82.21
2023-03-30T00:07:30.250Z,81.17
2023-03-30T00:10:02.927Z,80.27
2023-03-30T00:12:33.170Z,79.75
2023-03-30T00:15:00.981Z,79.82
2023-03-30T00:17:33.787Z,79.79
2023-03-30T00:20:06.376Z,79.65
2023-03-30T00:22:40.162Z,79.56
2023-03-30T00:25:15.511Z,79.41
2023-03-30T00:27:48.336Z,78.64
2023-03-30T00:30:18.744Z,78.77
2023-03-30T00:32:48.336Z,78.42
2023-03-30T00:35:16.188Z,77.96
2023-03-30T00:37:45.768Z,78.26
2023-03-30T00:40:19.106Z,78.36
2023-03-30T00:42:48.487Z,78.46
2023-03-30T00:45:30.316Z,78.57
2023-03-30T00:48:12.636Z,78.58
2023-03-30T00:50:43.951Z,78.93
2023-03-30T00:53:17.340Z,78.88
2023-03-30T00:55:47.390Z,79.14
2023-03-30T00:58:17.017Z,79.50
2023-03-30T01:00:47.328Z,79.05
2023-03-30T01:03:21.308Z,79.11
2023-03-30T01:05:50.443Z,79.17
2023-03-30T01:08:20.081Z,79.02
2023-03-30T01:10:48.156Z,79.21
2023-03-30T01:13:16.763Z,78.88
2023-03-30T01:15:55.923Z,79.10
2023-03-30T01:18:37.681Z,79.24
2023-03-30T01:21:37.741Z,79.53
2023-03-30T01:24:35.709Z,79.26
2023-03-30T01:27:19.936Z,79.50
2023-03-30T01:30:03.315Z,79.89
2023-03-30T01:32:57.192Z,79.78
2023-03-30T01:36:00.083Z,79.67
2023-03-30T01:41:33.442Z,79.81
2023-03-30T01:44:06.506Z,79.91
2023-03-30T01:46:40.420Z,79.93
2023-03-30T01:49:16.310Z,80.13
2023-03-30T01:51:50.836Z,80.38
2023-03-30T01:54:22.166Z,80.44
2023-03-30T01:56:56.136Z,80.42
2023-03-30T01:59:28.217Z,80.48
2023-03-30T02:02:00.569Z,80.48
2023-03-30T02:04:31.938Z,80.45
2023-03-30T02:07:04.105Z,80.11
2023-03-30T02:09:33.828Z,80.42
2023-03-30T02:12:04.919Z,80.74
2023-03-30T02:14:35.257Z,80.72
2023-03-30T02:17:07.481Z,80.84
2023-03-30T02:19:37.900Z,81.11
2023-03-30T02:22:06.287Z,81.72
2023-03-30T02:24:35.347Z,81.71
2023-03-30T02:27:05.264Z,81.83
2023-03-30T02:29:36.511Z,81.43
2023-03-30T02:32:05.277Z,82.29
2023-03-30T02:34:47.085Z,82.29
2023-03-30T02:37:30.159Z,82.43
2023-03-30T02:40:13.409Z,83.30
2023-03-30T02:43:03.389Z,83.52
2023-03-30T02:45:42.914Z,84.71
2023-03-30T02:48:30.830Z,85.37
2023-03-30T02:51:12.725Z,86.04
2023-03-30T02:53:45.452Z,86.25
2023-03-30T02:56:19.343Z,86.13
2023-03-30T02:58:50.726Z,87.43
2023-03-30T03:01:26.881Z,87.00
2023-03-30T03:03:59.137Z,87.42
2023-03-30T03:06:28.590Z,88.53
2023-03-30T03:08:57.552Z,88.71
2023-03-30T03:11:25.849Z,88.88
2023-03-30T03:13:55.667Z,88.99
2023-03-30T03:16:23.811Z,89.16
2023-03-30T03:18:52.567Z,89.49
2023-03-30T03:21:20.408Z,89.47
2023-03-30T03:23:48.679Z,90.16
2023-03-30T03:26:16.431Z,90.17
2023-03-30T03:28:44.885Z,90.37
2023-03-30T03:31:14.229Z,90.71
2023-03-30T03:33:42.043Z,90.60
2023-03-30T03:36:12.146Z,90.57
2023-03-30T03:38:40.236Z,90.25
2023-03-30T03:41:08.305Z,90.45
2023-03-30T03:43:36.708Z,91.36
2023-03-30T03:46:04.582Z,91.30
2023-03-30T03:48:33.738Z,91.10
2023-03-30T03:51:01.721Z,90.91
2023-03-30T03:53:32.274Z,91.08
2023-03-30T03:56:00.282Z,90.96
2023-03-30T03:58:28.753Z,90.82
2023-03-30T04:01:00.058Z,90.52
2023-03-30T04:03:29.018Z,90.62
2023-03-30T04:06:02.181Z,90.74
2023-03-30T04:08:30.512Z,91.29
2023-03-30T04:11:06.088Z,93.04
2023-03-30T04:13:33.970Z,92.95
2023-03-30T04:16:01.863Z,93.69
2023-03-30T04:18:31.577Z,93.60
2023-03-30T04:21:03.118Z,93.88
2023-03-30T04:23:33.846Z,93.83
2023-03-30T04:26:02.658Z,93.61
2023-03-30T04:28:31.774Z,94.49
2023-03-30T04:31:00.581Z,94.40
2023-03-30T04:33:28.327Z,94.77
2023-03-30T04:35:56.152Z,95.38
2023-03-30T04:38:25.408Z,95.44
2023-03-30T04:40:53.752Z,96.35
2023-03-30T04:43:22.981Z,96.50
2023-03-30T04:45:51.884Z,96.84
2023-03-30T04:48:20.639Z,97.52
2023-03-30T04:50:50.363Z,97.91
2023-03-30T04:53:19.503Z,98.02
2023-03-30T04:55:51.720Z,97.51
2023-03-30T04:58:19.808Z,97.62
2023-03-30T05:00:47.617Z,97.94
2023-03-30T05:03:15.572Z,97.48
2023-03-30T05:05:43.414Z,97.58
2023-03-30T05:08:11.216Z,97.71
2023-03-30T05:10:39.022Z,97.62
2023-03-30T05:13:08.162Z,97.40
2023-03-30T05:15:35.939Z,97.69
2023-03-30T05:18:03.695Z,97.80
2023-03-30T05:20:31.611Z,97.90
2023-03-30T05:22:59.387Z,97.88
2023-03-30T05:25:27.219Z,98.16
2023-03-30T05:27:54.943Z,98.79
2023-03-30T05:30:24.046Z,98.85
2023-03-30T05:32:51.873Z,98.99
2023-03-30T05:35:19.803Z,98.98
2023-03-30T05:37:49.661Z,98.66
2023-03-30T05:40:18.266Z,98.84
2023-03-30T05:42:46.064Z,98.52
2023-03-30T05:45:14.030Z,98.77
2023-03-30T05:47:43.222Z,98.43
2023-03-30T05:50:11.926Z,98.80
2023-03-30T05:52:39.687Z,98.57
2023-03-30T05:55:07.934Z,98.18
2023-03-30T05:57:35.769Z,97.67
2023-03-30T06:00:06.729Z,97.68
2023-03-30T06:02:34.970Z,96.56
2023-03-30T06:05:04.589Z,96.97
2023-03-30T06:07:32.747Z,96.43
2023-03-30T06:10:01.566Z,96.41
2023-03-30T06:12:29.397Z,96.19
2023-03-30T06:14:57.451Z,95.99
2023-03-30T06:17:26.035Z,95.48
2023-03-30T06:19:54.408Z,95.97
2023-03-30T06:22:23.588Z,95.93
2023-03-30T06:24:51.475Z,95.66
2023-03-30T06:27:19.256Z,94.78
2023-03-30T06:29:47.110Z,95.18
2023-03-30T06:32:14.866Z,94.92
2023-03-30T06:34:42.658Z,94.90
2023-03-30T06:37:10.433Z,95.11
2023-03-30T06:39:39.701Z,95.43
2023-03-30T06:42:07.596Z,95.41
2023-03-30T06:44:35.343Z,94.91
2023-03-30T06:47:03.433Z,94.44
2023-03-30T06:49:31.402Z,94.32
2023-03-30T06:52:01.502Z,94.28
2023-03-30T06:54:31.006Z,94.16
2023-03-30T06:57:00.259Z,94.37
2023-03-30T06:59:28.258Z,94.47
2023-03-30T07:02:00.871Z,94.39
2023-03-30T07:04:29.119Z,94.78
2023-03-30T07:06:57.905Z,94.67
2023-03-30T07:09:28.738Z,94.61
2023-03-30T07:11:56.755Z,95.00
2023-03-30T07:14:25.990Z,95.39
2023-03-30T07:16:54.191Z,95.55
2023-03-30T07:19:21.951Z,95.52
2023-03-30T07:21:49.694Z,94.79
2023-03-30T07:24:17.606Z,94.32
2023-03-30T07:26:45.576Z,94.09
2023-03-30T07:29:15.419Z,94.08
2023-03-30T07:31:44.890Z,93.35
2023-03-30T07:34:12.754Z,92.31
2023-03-30T07:36:40.479Z,92.12
2023-03-30T07:39:08.825Z,92.31
2023-03-30T07:41:36.575Z,92.92
2023-03-30T07:44:04.368Z,93.01
2023-03-30T07:46:32.248Z,92.07
2023-03-30T07:49:01.611Z,92.06
2023-03-30T07:51:29.479Z,92.15
2023-03-30T07:53:58.504Z,92.33
2023-03-30T07:56:26.310Z,91.62
2023-03-30T07:58:54.176Z,91.84
2023-03-30T08:01:22.151Z,91.49
2023-03-30T08:03:50.010Z,92.28
2023-03-30T08:06:19.237Z,91.98
2023-03-30T08:08:47.872Z,92.86
2023-03-30T08:11:16.290Z,91.95
2023-03-30T08:13:44.555Z,92.52
2023-03-30T08:16:12.562Z,93.29
2023-03-30T08:18:41.680Z,93.77
2023-03-30T08:21:10.938Z,94.11
2023-03-30T08:23:40.162Z,94.42
2023-03-30T08:26:07.980Z,95.10
2023-03-30T08:28:36.681Z,96.03
2023-03-30T08:31:06.377Z,96.67
2023-03-30T08:33:34.878Z,96.20
2023-03-30T08:36:02.702Z,95.01
2023-03-30T08:38:30.638Z,94.86
2023-03-30T08:40:59.834Z,93.71
2023-03-30T08:43:42.512Z,92.73
2023-03-30T08:46:15.571Z,92.83
2023-03-30T08:48:44.572Z,92.64
2023-03-30T08:51:23.442Z,91.92
2023-03-30T08:53:56.054Z,90.95
2023-03-30T08:56:28.419Z,90.45
2023-03-30T08:59:05.442Z,89.70
2023-03-30T09:01:41.084Z,88.53
2023-03-30T09:04:18.942Z,88.34
2023-03-30T09:06:51.887Z,86.91
2023-03-30T09:09:22.101Z,84.18
2023-03-30T09:11:56.547Z,84.30
2023-03-30T09:14:33.222Z,83.35
2023-03-30T09:17:08.639Z,81.73
2023-03-30T09:19:41.474Z,82.54
2023-03-30T09:22:13.619Z,83.41
2023-03-30T09:24:42.105Z,83.12
2023-03-30T09:27:17.203Z,81.99
2023-03-30T09:29:49.008Z,81.57
2023-03-30T09:32:25.157Z,81.42
2023-03-30T09:35:00.311Z,79.84
2023-03-30T09:37:29.795Z,80.00
2023-03-30T09:39:59.050Z,80.37
2023-03-30T09:42:36.403Z,80.80
2023-03-30T09:45:12.771Z,81.77
2023-03-30T09:47:42.502Z,82.06
2023-03-30T09:50:13.104Z,81.85
2023-03-30T09:52:41.848Z,81.33
2023-03-30T09:55:28.622Z,80.28
2023-03-30T09:58:13.114Z,79.88
2023-03-30T10:00:41.114Z,80.04
2023-03-30T10:03:19.713Z,79.56
2023-03-30T10:06:03.029Z,75.78
2023-03-30T10:08:31.627Z,77.59
2023-03-30T10:11:01.162Z,76.85
2023-03-30T10:13:34.243Z,77.77
2023-03-30T10:16:07.286Z,76.31
2023-03-30T10:18:41.075Z,74.84
2023-03-30T10:21:18.802Z,74.98
2023-03-30T10:23:48.319Z,75.18
2023-03-30T10:26:19.279Z,74.95
2023-03-30T10:28:56.523Z,75.77
2023-03-30T10:31:28.071Z,75.86
2023-03-30T10:34:00.632Z,74.93
2023-03-30T10:36:31.841Z,74.78
2023-03-30T10:39:08.973Z,74.54
2023-03-30T10:41:40.819Z,73.62
2023-03-30T10:44:20.406Z,72.67
2023-03-30T10:46:51.049Z,72.54
2023-03-30T10:49:31.458Z,73.30
2023-03-30T10:52:09.476Z,73.85
2023-03-30T10:54:42.951Z,73.88
2023-03-30T10:57:14.308Z,73.79
2023-03-30T11:00:15.535Z,73.70
2023-03-30T11:02:52.703Z,74.25
2023-03-30T11:05:25.307Z,74.41
2023-03-30T11:07:57.072Z,74.04
2023-03-30T11:10:31.437Z,74.48
2023-03-30T11:13:03.461Z,74.57
2023-03-30T11:15:38.627Z,73.76
2023-03-30T11:18:14.500Z,74.30
2023-03-30T11:20:48.719Z,73.44
2023-03-30T11:23:22.849Z,72.99
2023-03-30T11:26:03.649Z,73.85
2023-03-30T11:28:47.479Z,71.92
2023-03-30T11:31:29.241Z,72.40
2023-03-30T11:34:04.275Z,72.76
2023-03-30T11:36:37.858Z,73.16
2023-03-30T11:39:28.824Z,73.43
2023-03-30T11:42:07.253Z,73.92
2023-03-30T11:44:35.097Z,73.81
2023-03-30T11:47:20.235Z,74.33
2023-03-30T11:50:03.043Z,73.55
2023-03-30T11:52:35.813Z,74.79
2023-03-30T11:55:34.779Z,76.15
2023-03-30T11:58:10.513Z,77.03
2023-03-30T12:00:50.422Z,77.29
2023-03-30T12:03:31.089Z,77.92
2023-03-30T12:06:07.437Z,76.87
2023-03-30T12:08:54.076Z,77.83
2023-03-30T12:11:31.843Z,77.56
2023-03-30T12:14:00.489Z,77.76
2023-03-30T12:16:38.913Z,78.31
2023-03-30T12:19:14.737Z,79.44
2023-03-30T12:21:49.055Z,80.11
2023-03-30T12:24:24.180Z,79.43
2023-03-30T12:27:04.669Z,79.61
2023-03-30T12:30:02.385Z,78.62
2023-03-30T12:32:32.052Z,79.52
2023-03-30T12:35:01.228Z,77.93
2023-03-30T12:37:34.802Z,79.07
2023-03-30T12:40:07.375Z,80.87
2023-03-30T12:42:39.619Z,80.87
2023-03-30T12:45:32.106Z,79.58
2023-03-30T12:48:17.729Z,79.63
2023-03-30T12:50:57.768Z,78.98
2023-03-30T12:54:03.787Z,77.58
2023-03-30T12:56:39.102Z,77.15
2023-03-30T12:59:31.137Z,77.45
2023-03-30T13:02:16.990Z,76.00
2023-03-30T13:04:48.935Z,75.87
2023-03-30T13:07:23.263Z,76.07
2023-03-30T13:09:57.005Z,74.98
2023-03-30T13:12:41.066Z,73.79
2023-03-30T13:15:34.906Z,72.26
2023-03-30T13:18:04.356Z,73.28
2023-03-30T13:20:34.240Z,71.80
2023-03-30T13:23:32.180Z,69.30
2023-03-30T13:26:32.358Z,69.85
2023-03-30T13:29:10.301Z,69.54
2023-03-30T13:31:52.132Z,68.52
2023-03-30T13:34:30.260Z,69.43
2023-03-30T13:37:04.878Z,69.33
2023-03-30T13:39:41.792Z,70.61
2023-03-30T13:42:27.173Z,70.50
2023-03-30T13:45:03.054Z,70.12
2023-03-30T13:47:45.214Z,69.31
2023-03-30T13:50:24.865Z,68.88
2023-03-30T13:52:56.419Z,68.54
2023-03-30T13:55:32.525Z,69.78
2023-03-30T13:58:04.612Z,71.63
2023-03-30T14:00:40.086Z,71.77
2023-03-30T14:03:37.204Z,70.43
2023-03-30T14:06:08.930Z,70.56
2023-03-30T14:08:38.900Z,69.55
2023-03-30T14:11:15.628Z,68.01
2023-03-30T14:13:44.687Z,70.09
2023-03-30T14:16:18.567Z,67.79
2023-03-30T14:18:46.695Z,68.35
2023-03-30T14:21:18.563Z,67.51
2023-03-30T14:23:51.070Z,67.63
2023-03-30T14:26:24.501Z,67.33
2023-03-30T14:28:56.703Z,66.87
2023-03-30T14:31:26.998Z,67.59
2023-03-30T14:33:55.179Z,66.58
2023-03-30T14:36:23.473Z,67.46
2023-03-30T14:38:53.945Z,67.48
2023-03-30T14:41:27.489Z,67.49
2023-03-30T14:43:56.915Z,66.80
2023-03-30T14:46:26.659Z,67.82
2023-03-30T14:48:55.179Z,66.98
2023-03-30T14:51:26.286Z,66.37
2023-03-30T14:53:55.872Z,66.69
2023-03-30T14:56:25.855Z,67.40
2023-03-30T14:58:55.691Z,68.35
2023-03-30T15:01:31.079Z,69.01
2023-03-30T15:04:01.202Z,68.87
2023-03-30T15:06:31.382Z,69.75
2023-03-30T15:09:03.330Z,69.51
2023-03-30T15:11:35.706Z,70.87
2023-03-30T15:14:09.785Z,70.40
2023-03-30T15:16:38.855Z,70.03
2023-03-30T15:19:11.716Z,69.78
2023-03-30T15:21:43.299Z,69.25
2023-03-30T15:24:17.606Z,68.91
2023-03-30T15:26:49.695Z,68.43
2023-03-30T15:29:19.585Z,69.08
2023-03-30T15:31:47.432Z,68.38
2023-03-30T15:34:17.443Z,69.15
2023-03-30T15:36:46.314Z,70.14
2023-03-30T15:39:22.041Z,70.74
2023-03-30T15:42:01.269Z,70.89
2023-03-30T15:44:29.855Z,71.17
2023-03-30T15:46:59.301Z,71.46
2023-03-30T15:49:31.765Z,71.46
2023-03-30T15:52:02.602Z,71.88
2023-03-30T15:54:35.031Z,72.20
2023-03-30T15:57:08.402Z,71.65
2023-03-30T15:59:39.908Z,71.84
2023-03-30T16:02:16.360Z,72.21
2023-03-30T16:04:44.301Z,72.85
2023-03-30T16:07:16.823Z,72.96
2023-03-30T16:09:44.603Z,73.06
2023-03-30T16:12:17.849Z,73.03
2023-03-30T16:14:46.704Z,73.58
2023-03-30T16:17:14.590Z,73.41
2023-03-30T16:19:42.872Z,73.47
2023-03-30T16:22:12.115Z,72.97
2023-03-30T16:24:40.907Z,73.13
2023-03-30T16:27:08.912Z,72.24
2023-03-30T16:29:38.133Z,72.12
2023-03-30T16:32:06.399Z,72.57
2023-03-30T16:34:34.149Z,72.70
2023-03-30T16:37:03.687Z,71.96
2023-03-30T16:39:31.800Z,73.02
2023-03-30T16:42:00.290Z,74.33
2023-03-30T16:44:28.153Z,74.50
2023-03-30T16:46:57.298Z,75.09
2023-03-30T16:49:26.579Z,75.43
2023-03-30T16:51:57.916Z,75.02
2023-03-30T16:56:57.002Z,75.04
2023-03-30T16:59:26.757Z,74.89
2023-03-30T17:01:54.522Z,75.74
2023-03-30T17:04:23.703Z,75.25
2023-03-30T17:06:51.631Z,74.51
2023-03-30T17:09:21.180Z,74.40
2023-03-30T17:11:49.836Z,74.58
2023-03-30T17:14:17.908Z,74.51
2023-03-30T17:16:45.771Z,74.51
2023-03-30T17:19:15.053Z,74.85
2023-03-30T17:21:45.885Z,75.00
2023-03-30T17:24:16.367Z,75.38
2023-03-30T17:26:44.361Z,75.98
2023-03-30T17:29:12.243Z,76.40
2023-03-30T17:31:45.335Z,76.51
2023-03-30T17:34:13.304Z,77.07
2023-03-30T17:36:41.088Z,78.48
2023-03-30T17:39:13.176Z,78.96
2023-03-30T17:41:41.289Z,80.21
2023-03-30T17:44:09.066Z,80.30
2023-03-30T17:46:36.911Z,80.58
2023-03-30T17:49:04.912Z,80.50
2023-03-30T17:51:32.725Z,81.00
2023-03-30T17:54:00.477Z,80.38
2023-03-30T17:56:29.569Z,80.16
2023-03-30T17:58:57.352Z,79.94
2023-03-30T18:01:25.150Z,79.98
2023-03-30T18:03:53.090Z,80.21
2023-03-30T18:06:20.850Z,80.42
2023-03-30T18:08:48.646Z,80.12
2023-03-30T18:11:16.394Z,80.89
2023-03-30T18:13:45.517Z,80.23
2023-03-30T18:16:13.877Z,80.50
2023-03-30T18:18:41.684Z,81.12
2023-03-30T18:21:11.047Z,80.51
2023-03-30T18:23:38.877Z,80.61
2023-03-30T18:26:11.262Z,80.87
2023-03-30T18:28:43.463Z,80.72
2023-03-30T18:31:13.427Z,80.69
2023-03-30T18:33:41.250Z,81.23
2023-03-30T18:36:12.960Z,81.23
2023-03-30T18:38:41.483Z,81.46
2023-03-30T18:41:11.470Z,81.78
2023-03-30T18:43:42.336Z,81.89
2023-03-30T18:46:13.842Z,81.95
2023-03-30T18:48:41.720Z,82.46
2023-03-30T18:51:12.114Z,82.33
2023-03-30T18:53:40.145Z,82.66
2023-03-30T18:56:10.365Z,83.29
2023-03-30T18:58:42.038Z,83.57
2023-03-30T19:01:12.920Z,83.66
2023-03-30T19:03:42.491Z,83.42
2023-03-30T19:06:13.727Z,83.92
2023-03-30T19:08:43.730Z,83.97
2023-03-30T19:11:16.281Z,83.26
2023-03-30T19:13:44.088Z,83.73
2023-03-30T19:16:11.856Z,84.09
2023-03-30T19:18:39.965Z,83.84
2023-03-30T19:21:10.809Z,84.31
2023-03-30T19:23:38.614Z,84.85
2023-03-30T19:26:07.445Z,84.74
2023-03-30T19:28:35.948Z,85.10
2023-03-30T19:31:10.217Z,84.95
2023-03-30T19:33:38.017Z,85.03
2023-03-30T19:36:07.237Z,85.58
2023-03-30T19:38:37.401Z,85.58
2023-03-30T19:41:06.775Z,85.47
2023-03-30T19:43:34.835Z,86.09
2023-03-30T19:46:02.790Z,86.36
2023-03-30T19:48:30.667Z,86.21
2023-03-30T19:50:58.500Z,86.55
2023-03-30T19:53:26.368Z,86.84
2023-03-30T19:55:55.607Z,86.70
2023-03-30T19:58:23.389Z,87.47
2023-03-30T20:00:51.253Z,87.16
2023-03-30T20:03:19.266Z,87.53
2023-03-30T20:05:51.155Z,87.43
2023-03-30T20:08:24.271Z,87.55
2023-03-30T20:10:53.149Z,87.98
2023-03-30T20:13:24.020Z,87.62
2023-03-30T20:15:56.098Z,88.14
2023-03-30T20:18:24.231Z,88.18
2023-03-30T20:20:52.651Z,88.07
2023-03-30T20:23:20.527Z,87.68
2023-03-30T20:25:49.370Z,88.24
2023-03-30T20:28:17.404Z,87.86
2023-03-30T20:30:47.629Z,87.69
2023-03-30T20:33:15.570Z,87.77
2023-03-30T20:35:43.552Z,88.27
2023-03-30T20:38:11.351Z,88.00
2023-03-30T20:40:39.130Z,88.08
2023-03-30T20:43:10.732Z,87.96
2023-03-30T20:45:46.128Z,87.87
2023-03-30T20:48:25.934Z,88.00
2023-03-30T20:50:54.269Z,87.95
2023-03-30T20:53:22.951Z,88.09
2023-03-30T20:55:51.122Z,88.11
2023-03-30T20:58:18.854Z,88.20
2023-03-30T21:00:47.444Z,88.71
2023-03-30T21:03:16.785Z,88.77
2023-03-30T21:05:44.742Z,89.38
2023-03-30T21:08:12.502Z,89.36
2023-03-30T21:10:43.009Z,89.62
2023-03-30T21:13:11.011Z,89.71
2023-03-30T21:15:38.756Z,89.50
2023-03-30T21:18:06.727Z,89.58
2023-03-30T21:20:35.916Z,89.38
2023-03-30T21:23:03.747Z,89.40
2023-03-30T21:25:32.113Z,89.74
2023-03-30T21:27:59.860Z,89.34
2023-03-30T21:30:28.940Z,89.62
2023-03-30T21:32:56.747Z,89.50
2023-03-30T21:35:24.974Z,89.57
2023-03-30T21:37:54.029Z,89.74
2023-03-30T21:40:22.337Z,89.89
2023-03-30T21:42:50.111Z,89.80
2023-03-30T21:45:18.262Z,89.76
2023-03-30T21:47:46.070Z,89.73
2023-03-30T21:50:13.830Z,89.73
2023-03-30T21:52:41.530Z,89.81
2023-03-30T21:55:10.827Z,89.80
2023-03-30T21:57:38.591Z,89.85
2023-03-30T22:00:10.183Z,90.03
2023-03-30T22:02:38.297Z,90.29
2023-03-30T22:05:06.935Z,90.19
2023-03-30T22:07:34.646Z,90.60
2023-03-30T22:10:02.412Z,91.38
2023-03-30T22:12:31.637Z,91.50
2023-03-30T22:14:59.359Z,91.85
2023-03-30T22:17:34.989Z,91.63
2023-03-30T22:20:02.870Z,91.55
2023-03-30T22:22:30.624Z,91.69
2023-03-30T22:24:58.318Z,91.90
2023-03-30T22:27:26.395Z,91.90
2023-03-30T22:29:55.501Z,91.95
2023-03-30T22:32:23.471Z,92.05
2023-03-30T22:34:51.307Z,91.82
2023-03-30T22:37:19.145Z,91.97
2023-03-30T22:39:46.955Z,91.37
2023-03-30T22:42:14.792Z,91.79
2023-03-30T22:44:42.738Z,91.72
2023-03-30T22:47:11.908Z,91.84
2023-03-30T22:49:40.154Z,91.86
2023-03-30T22:52:08.027Z,91.72
2023-03-30T22:54:35.787Z,91.54
2023-03-30T22:57:03.585Z,91.70
2023-03-30T22:59:31.655Z,91.53
2023-03-30T23:01:59.426Z,92.03
2023-03-30T23:04:29.007Z,91.54
2023-03-30T23:06:56.805Z,91.82
2023-03-30T23:09:24.537Z,91.59
2023-03-30T23:11:53.632Z,91.90
2023-03-30T23:14:21.805Z,91.58
2023-03-30T23:16:52.005Z,92.00
2023-03-30T23:19:19.874Z,92.14
2023-03-30T23:21:50.303Z,92.01
2023-03-30T23:24:18.057Z,92.18
2023-03-30T23:26:46.225Z,92.36
2023-03-30T23:29:14.050Z,91.93
2023-03-30T23:31:41.769Z,92.41
2023-03-30T23:34:12.940Z,92.25
2023-03-30T23:36:40.771Z,92.80
2023-03-30T23:39:10.275Z,92.55
2023-03-30T23:41:37.982Z,92.59
2023-03-30T23:44:06.116Z,92.97
2023-03-30T23:46:34.270Z,93.24
2023-03-30T23:49:03.300Z,93.18
2023-03-30T23:51:31.063Z,93.22
2023-03-30T23:54:06.113Z,93.67
2023-03-30T23:56:36.028Z,94.15
2023-03-30T23:59:04.513Z,93.80
